sensor_id;sensor_type;location;lat;lon;timestamp;P1;durP1;ratioP1;P2;durP2;ratioP2
22764;SDS011;11549;50.852;3.816;2023-07-20T00:01:21;13.68;;;4.45;;
22764;SDS011;11549;50.852;3.816;2023-07-20T00:03:50;12.10;;;4.80;;
22764;SDS011;11549;50.852;3.816;2023-07-20T00:06:24;12.23;;;4.60;;
22764;SDS011;11549;50.852;3.816;2023-07-20T00:08:54;13.82;;;5.70;;
22764;SDS011;11549;50.852;3.816;2023-07-20T00:11:26;12.95;;;5.70;;
22764;SDS011;11549;50.852;3.816;2023-07-20T00:13:55;13.07;;;5.32;;
22764;SDS011;11549;50.852;3.816;2023-07-20T00:16:24;11.45;;;5.07;;
22764;SDS011;11549;50.852;3.816;2023-07-20T00:18:52;15.52;;;5.50;;
22764;SDS011;11549;50.852;3.816;2023-07-20T00:21:21;12.90;;;5.72;;
22764;SDS011;11549;50.852;3.816;2023-07-20T00:23:51;14.40;;;6.20;;
22764;SDS011;11549;50.852;3.816;2023-07-20T00:26:19;14.18;;;6.28;;
22764;SDS011;11549;50.852;3.816;2023-07-20T00:28:49;12.50;;;5.88;;
22764;SDS011;11549;50.852;3.816;2023-07-20T00:31:18;14.48;;;6.00;;
22764;SDS011;11549;50.852;3.816;2023-07-20T00:33:47;13.93;;;6.00;;
22764;SDS011;11549;50.852;3.816;2023-07-20T00:36:16;17.08;;;6.93;;
22764;SDS011;11549;50.852;3.816;2023-07-20T00:38:44;15.68;;;6.78;;
22764;SDS011;11549;50.852;3.816;2023-07-20T00:41:13;12.05;;;5.63;;
22764;SDS011;11549;50.852;3.816;2023-07-20T00:43:42;15.60;;;6.25;;
22764;SDS011;11549;50.852;3.816;2023-07-20T00:46:10;17.92;;;7.00;;
22764;SDS011;11549;50.852;3.816;2023-07-20T00:48:39;12.80;;;6.55;;
22764;SDS011;11549;50.852;3.816;2023-07-20T00:51:09;15.20;;;7.38;;
22764;SDS011;11549;50.852;3.816;2023-07-20T00:53:38;12.90;;;6.45;;
22764;SDS011;11549;50.852;3.816;2023-07-20T00:56:06;15.63;;;6.60;;
22764;SDS011;11549;50.852;3.816;2023-07-20T00:58:36;17.88;;;6.70;;
22764;SDS011;11549;50.852;3.816;2023-07-20T01:01:05;14.98;;;6.90;;
22764;SDS011;11549;50.852;3.816;2023-07-20T01:03:35;20.80;;;7.10;;
22764;SDS011;11549;50.852;3.816;2023-07-20T01:06:06;15.75;;;6.95;;
22764;SDS011;11549;50.852;3.816;2023-07-20T01:08:45;13.95;;;7.07;;
22764;SDS011;11549;50.852;3.816;2023-07-20T01:11:22;21.08;;;8.93;;
22764;SDS011;11549;50.852;3.816;2023-07-20T01:14:01;22.75;;;7.38;;
22764;SDS011;11549;50.852;3.816;2023-07-20T01:16:30;16.50;;;7.82;;
22764;SDS011;11549;50.852;3.816;2023-07-20T01:19:00;20.10;;;7.85;;
22764;SDS011;11549;50.852;3.816;2023-07-20T01:21:31;18.92;;;7.90;;
22764;SDS011;11549;50.852;3.816;2023-07-20T01:24:11;14.57;;;6.82;;
22764;SDS011;11549;50.852;3.816;2023-07-20T01:26:59;13.77;;;6.70;;
22764;SDS011;11549;50.852;3.816;2023-07-20T01:29:47;14.57;;;7.00;;
22764;SDS011;11549;50.852;3.816;2023-07-20T01:32:27;15.55;;;7.65;;
22764;SDS011;11549;50.852;3.816;2023-07-20T01:34:56;16.95;;;7.25;;
22764;SDS011;11549;50.852;3.816;2023-07-20T01:37:27;19.30;;;7.72;;
22764;SDS011;11549;50.852;3.816;2023-07-20T01:39:57;18.20;;;7.97;;
22764;SDS011;11549;50.852;3.816;2023-07-20T01:42:30;19.23;;;8.60;;
22764;SDS011;11549;50.852;3.816;2023-07-20T01:44:58;19.40;;;8.55;;
22764;SDS011;11549;50.852;3.816;2023-07-20T01:47:28;15.52;;;7.80;;
22764;SDS011;11549;50.852;3.816;2023-07-20T01:49:56;17.15;;;7.90;;
22764;SDS011;11549;50.852;3.816;2023-07-20T01:52:25;20.80;;;8.88;;
22764;SDS011;11549;50.852;3.816;2023-07-20T01:54:53;16.75;;;7.85;;
22764;SDS011;11549;50.852;3.816;2023-07-20T01:57:21;14.10;;;7.22;;
22764;SDS011;11549;50.852;3.816;2023-07-20T01:59:50;12.18;;;7.03;;
22764;SDS011;11549;50.852;3.816;2023-07-20T02:02:18;21.42;;;9.10;;
22764;SDS011;11549;50.852;3.816;2023-07-20T02:04:49;17.40;;;8.57;;
22764;SDS011;11549;50.852;3.816;2023-07-20T02:07:17;15.45;;;8.95;;
22764;SDS011;11549;50.852;3.816;2023-07-20T02:09:45;21.58;;;9.27;;
22764;SDS011;11549;50.852;3.816;2023-07-20T02:12:14;18.17;;;8.68;;
22764;SDS011;11549;50.852;3.816;2023-07-20T02:14:42;18.38;;;8.75;;
22764;SDS011;11549;50.852;3.816;2023-07-20T02:17:11;17.30;;;9.27;;
22764;SDS011;11549;50.852;3.816;2023-07-20T02:19:40;16.38;;;9.77;;
22764;SDS011;11549;50.852;3.816;2023-07-20T02:22:10;17.48;;;9.48;;
22764;SDS011;11549;50.852;3.816;2023-07-20T02:24:38;16.08;;;8.90;;
22764;SDS011;11549;50.852;3.816;2023-07-20T02:27:06;13.52;;;8.40;;
22764;SDS011;11549;50.852;3.816;2023-07-20T02:29:34;16.92;;;9.05;;
22764;SDS011;11549;50.852;3.816;2023-07-20T02:32:04;16.27;;;8.20;;
22764;SDS011;11549;50.852;3.816;2023-07-20T02:34:33;17.08;;;9.50;;
22764;SDS011;11549;50.852;3.816;2023-07-20T02:37:01;19.00;;;10.15;;
22764;SDS011;11549;50.852;3.816;2023-07-20T02:39:32;14.93;;;9.77;;
22764;SDS011;11549;50.852;3.816;2023-07-20T02:42:00;20.48;;;9.75;;
22764;SDS011;11549;50.852;3.816;2023-07-20T02:44:29;16.55;;;9.50;;
22764;SDS011;11549;50.852;3.816;2023-07-20T02:46:57;18.15;;;10.38;;
22764;SDS011;11549;50.852;3.816;2023-07-20T02:49:26;19.85;;;9.93;;
22764;SDS011;11549;50.852;3.816;2023-07-20T02:51:54;20.70;;;11.27;;
22764;SDS011;11549;50.852;3.816;2023-07-20T02:54:23;18.90;;;10.38;;
22764;SDS011;11549;50.852;3.816;2023-07-20T02:56:52;19.42;;;11.20;;
22764;SDS011;11549;50.852;3.816;2023-07-20T02:59:21;17.88;;;9.93;;
22764;SDS011;11549;50.852;3.816;2023-07-20T03:01:50;15.68;;;10.07;;
22764;SDS011;11549;50.852;3.816;2023-07-20T03:04:18;19.27;;;9.65;;
22764;SDS011;11549;50.852;3.816;2023-07-20T03:06:46;19.10;;;10.88;;
22764;SDS011;11549;50.852;3.816;2023-07-20T03:09:15;18.27;;;10.20;;
22764;SDS011;11549;50.852;3.816;2023-07-20T03:11:43;17.55;;;11.00;;
22764;SDS011;11549;50.852;3.816;2023-07-20T03:14:13;24.83;;;12.57;;
22764;SDS011;11549;50.852;3.816;2023-07-20T03:16:41;20.80;;;11.20;;
22764;SDS011;11549;50.852;3.816;2023-07-20T03:19:10;22.02;;;12.00;;
22764;SDS011;11549;50.852;3.816;2023-07-20T03:21:39;15.40;;;10.27;;
22764;SDS011;11549;50.852;3.816;2023-07-20T03:24:07;20.05;;;11.65;;
22764;SDS011;11549;50.852;3.816;2023-07-20T03:26:36;22.83;;;12.00;;
22764;SDS011;11549;50.852;3.816;2023-07-20T03:29:04;17.75;;;10.98;;
22764;SDS011;11549;50.852;3.816;2023-07-20T03:31:34;21.67;;;13.02;;
22764;SDS011;11549;50.852;3.816;2023-07-20T03:34:02;17.42;;;11.70;;
22764;SDS011;11549;50.852;3.816;2023-07-20T03:36:31;21.48;;;11.57;;
22764;SDS011;11549;50.852;3.816;2023-07-20T03:39:00;22.75;;;12.15;;
22764;SDS011;11549;50.852;3.816;2023-07-20T03:41:29;17.65;;;11.57;;
22764;SDS011;11549;50.852;3.816;2023-07-20T03:43:57;23.17;;;13.00;;
22764;SDS011;11549;50.852;3.816;2023-07-20T03:46:25;19.73;;;11.57;;
22764;SDS011;11549;50.852;3.816;2023-07-20T03:48:55;16.83;;;11.73;;
22764;SDS011;11549;50.852;3.816;2023-07-20T03:51:24;20.10;;;12.18;;
22764;SDS011;11549;50.852;3.816;2023-07-20T03:53:52;18.45;;;13.02;;
22764;SDS011;11549;50.852;3.816;2023-07-20T03:56:21;20.75;;;12.52;;
22764;SDS011;11549;50.852;3.816;2023-07-20T03:58:49;20.00;;;14.27;;
22764;SDS011;11549;50.852;3.816;2023-07-20T04:01:18;18.88;;;12.02;;
22764;SDS011;11549;50.852;3.816;2023-07-20T04:03:46;18.27;;;11.82;;
22764;SDS011;11549;50.852;3.816;2023-07-20T04:06:17;19.42;;;12.95;;
22764;SDS011;11549;50.852;3.816;2023-07-20T04:08:45;20.13;;;13.25;;
22764;SDS011;11549;50.852;3.816;2023-07-20T04:11:14;19.48;;;12.30;;
22764;SDS011;11549;50.852;3.816;2023-07-20T04:13:43;25.60;;;13.25;;
22764;SDS011;11549;50.852;3.816;2023-07-20T04:16:11;23.38;;;13.13;;
22764;SDS011;11549;50.852;3.816;2023-07-20T04:18:40;18.38;;;11.25;;
22764;SDS011;11549;50.852;3.816;2023-07-20T04:21:08;22.45;;;12.45;;
22764;SDS011;11549;50.852;3.816;2023-07-20T04:23:38;21.85;;;11.68;;
22764;SDS011;11549;50.852;3.816;2023-07-20T04:26:07;22.20;;;12.18;;
22764;SDS011;11549;50.852;3.816;2023-07-20T04:28:35;18.70;;;11.15;;
22764;SDS011;11549;50.852;3.816;2023-07-20T04:31:09;22.25;;;13.07;;
22764;SDS011;11549;50.852;3.816;2023-07-20T04:33:39;16.75;;;10.68;;
22764;SDS011;11549;50.852;3.816;2023-07-20T04:36:07;17.13;;;10.30;;
22764;SDS011;11549;50.852;3.816;2023-07-20T04:38:35;17.08;;;11.45;;
22764;SDS011;11549;50.852;3.816;2023-07-20T04:41:05;20.63;;;12.38;;
22764;SDS011;11549;50.852;3.816;2023-07-20T04:43:33;17.63;;;11.68;;
22764;SDS011;11549;50.852;3.816;2023-07-20T04:46:02;18.85;;;10.63;;
22764;SDS011;11549;50.852;3.816;2023-07-20T04:48:30;15.93;;;10.50;;
22764;SDS011;11549;50.852;3.816;2023-07-20T04:50:58;18.15;;;11.07;;
22764;SDS011;11549;50.852;3.816;2023-07-20T04:53:27;17.83;;;10.65;;
22764;SDS011;11549;50.852;3.816;2023-07-20T04:55:55;16.13;;;10.40;;
22764;SDS011;11549;50.852;3.816;2023-07-20T04:58:25;21.00;;;12.20;;
22764;SDS011;11549;50.852;3.816;2023-07-20T05:00:53;16.00;;;10.57;;
22764;SDS011;11549;50.852;3.816;2023-07-20T05:03:21;18.20;;;10.82;;
22764;SDS011;11549;50.852;3.816;2023-07-20T05:05:50;18.77;;;11.68;;
22764;SDS011;11549;50.852;3.816;2023-07-20T05:08:18;20.42;;;11.05;;
22764;SDS011;11549;50.852;3.816;2023-07-20T05:10:49;17.75;;;10.48;;
22764;SDS011;11549;50.852;3.816;2023-07-20T05:13:17;18.15;;;11.48;;
22764;SDS011;11549;50.852;3.816;2023-07-20T05:15:47;17.60;;;11.15;;
22764;SDS011;11549;50.852;3.816;2023-07-20T05:18:19;23.40;;;13.35;;
22764;SDS011;11549;50.852;3.816;2023-07-20T05:20:47;23.67;;;12.52;;
22764;SDS011;11549;50.852;3.816;2023-07-20T05:23:17;18.20;;;12.73;;
22764;SDS011;11549;50.852;3.816;2023-07-20T05:25:47;23.02;;;13.63;;
22764;SDS011;11549;50.852;3.816;2023-07-20T05:28:21;17.35;;;11.65;;
22764;SDS011;11549;50.852;3.816;2023-07-20T05:30:51;16.05;;;12.00;;
22764;SDS011;11549;50.852;3.816;2023-07-20T05:33:20;15.00;;;11.52;;
22764;SDS011;11549;50.852;3.816;2023-07-20T05:35:48;16.75;;;11.77;;
22764;SDS011;11549;50.852;3.816;2023-07-20T05:38:16;18.65;;;11.98;;
22764;SDS011;11549;50.852;3.816;2023-07-20T05:40:45;14.32;;;10.57;;
22764;SDS011;11549;50.852;3.816;2023-07-20T05:43:14;14.38;;;10.77;;
22764;SDS011;11549;50.852;3.816;2023-07-20T05:45:42;14.85;;;11.40;;
22764;SDS011;11549;50.852;3.816;2023-07-20T05:48:12;12.32;;;9.05;;
22764;SDS011;11549;50.852;3.816;2023-07-20T05:50:41;11.90;;;9.80;;
22764;SDS011;11549;50.852;3.816;2023-07-20T05:53:11;16.95;;;12.65;;
22764;SDS011;11549;50.852;3.816;2023-07-20T05:55:39;14.18;;;10.57;;
22764;SDS011;11549;50.852;3.816;2023-07-20T05:58:07;14.55;;;10.68;;
22764;SDS011;11549;50.852;3.816;2023-07-20T06:00:36;12.07;;;10.30;;
22764;SDS011;11549;50.852;3.816;2023-07-20T06:03:04;14.57;;;11.30;;
22764;SDS011;11549;50.852;3.816;2023-07-20T06:05:34;17.25;;;11.80;;
22764;SDS011;11549;50.852;3.816;2023-07-20T06:08:02;14.07;;;10.98;;
22764;SDS011;11549;50.852;3.816;2023-07-20T06:10:31;12.57;;;9.65;;
22764;SDS011;11549;50.852;3.816;2023-07-20T06:12:59;16.48;;;11.73;;
22764;SDS011;11549;50.852;3.816;2023-07-20T06:15:28;13.07;;;10.23;;
22764;SDS011;11549;50.852;3.816;2023-07-20T06:17:58;12.05;;;9.82;;
22764;SDS011;11549;50.852;3.816;2023-07-20T06:20:27;14.65;;;9.95;;
22764;SDS011;11549;50.852;3.816;2023-07-20T06:22:57;12.32;;;9.68;;
22764;SDS011;11549;50.852;3.816;2023-07-20T06:25:25;12.73;;;9.02;;
22764;SDS011;11549;50.852;3.816;2023-07-20T06:27:54;12.35;;;8.77;;
22764;SDS011;11549;50.852;3.816;2023-07-20T06:30:23;11.40;;;7.65;;
22764;SDS011;11549;50.852;3.816;2023-07-20T06:32:52;10.70;;;7.45;;
22764;SDS011;11549;50.852;3.816;2023-07-20T06:35:20;10.75;;;7.63;;
22764;SDS011;11549;50.852;3.816;2023-07-20T06:37:49;11.38;;;7.28;;
22764;SDS011;11549;50.852;3.816;2023-07-20T06:40:19;9.73;;;7.28;;
22764;SDS011;11549;50.852;3.816;2023-07-20T06:42:51;10.98;;;7.40;;
22764;SDS011;11549;50.852;3.816;2023-07-20T06:45:23;11.98;;;8.30;;
22764;SDS011;11549;50.852;3.816;2023-07-20T06:47:51;10.23;;;7.70;;
22764;SDS011;11549;50.852;3.816;2023-07-20T06:50:20;9.63;;;7.60;;
22764;SDS011;11549;50.852;3.816;2023-07-20T06:52:52;10.63;;;7.73;;
22764;SDS011;11549;50.852;3.816;2023-07-20T06:55:25;8.63;;;6.20;;
22764;SDS011;11549;50.852;3.816;2023-07-20T06:57:55;10.20;;;6.18;;
22764;SDS011;11549;50.852;3.816;2023-07-20T07:00:25;9.95;;;7.03;;
22764;SDS011;11549;50.852;3.816;2023-07-20T07:02:53;10.80;;;6.72;;
22764;SDS011;11549;50.852;3.816;2023-07-20T07:05:22;10.63;;;7.15;;
22764;SDS011;11549;50.852;3.816;2023-07-20T07:08:00;12.00;;;7.63;;
22764;SDS011;11549;50.852;3.816;2023-07-20T07:10:30;8.32;;;5.32;;
22764;SDS011;11549;50.852;3.816;2023-07-20T07:12:58;7.15;;;5.20;;
22764;SDS011;11549;50.852;3.816;2023-07-20T07:15:27;7.68;;;5.20;;
22764;SDS011;11549;50.852;3.816;2023-07-20T07:17:55;5.72;;;4.72;;
22764;SDS011;11549;50.852;3.816;2023-07-20T07:20:25;6.97;;;4.55;;
22764;SDS011;11549;50.852;3.816;2023-07-20T07:22:54;5.15;;;4.63;;
22764;SDS011;11549;50.852;3.816;2023-07-20T07:25:23;6.07;;;4.50;;
22764;SDS011;11549;50.852;3.816;2023-07-20T07:27:54;6.55;;;4.47;;
22764;SDS011;11549;50.852;3.816;2023-07-20T07:30:23;5.68;;;3.88;;
22764;SDS011;11549;50.852;3.816;2023-07-20T07:32:52;5.32;;;3.80;;
22764;SDS011;11549;50.852;3.816;2023-07-20T07:35:21;5.95;;;4.00;;
22764;SDS011;11549;50.852;3.816;2023-07-20T07:37:49;5.88;;;4.03;;
22764;SDS011;11549;50.852;3.816;2023-07-20T07:40:38;5.03;;;3.83;;
22764;SDS011;11549;50.852;3.816;2023-07-20T07:43:07;5.25;;;3.58;;
22764;SDS011;11549;50.852;3.816;2023-07-20T07:45:36;5.45;;;3.17;;
22764;SDS011;11549;50.852;3.816;2023-07-20T07:48:05;4.32;;;2.60;;
22764;SDS011;11549;50.852;3.816;2023-07-20T07:50:33;5.00;;;2.75;;
22764;SDS011;11549;50.852;3.816;2023-07-20T07:53:02;4.47;;;2.40;;
22764;SDS011;11549;50.852;3.816;2023-07-20T07:55:30;3.28;;;2.10;;
22764;SDS011;11549;50.852;3.816;2023-07-20T07:57:59;3.80;;;2.17;;
22764;SDS011;11549;50.852;3.816;2023-07-20T08:00:29;3.97;;;2.60;;
22764;SDS011;11549;50.852;3.816;2023-07-20T08:02:57;5.43;;;2.75;;
22764;SDS011;11549;50.852;3.816;2023-07-20T08:05:27;5.53;;;2.90;;
22764;SDS011;11549;50.852;3.816;2023-07-20T08:07:55;4.47;;;2.90;;
22764;SDS011;11549;50.852;3.816;2023-07-20T08:10:24;4.47;;;2.90;;
22764;SDS011;11549;50.852;3.816;2023-07-20T08:12:53;4.18;;;2.50;;
22764;SDS011;11549;50.852;3.816;2023-07-20T08:15:21;5.28;;;2.53;;
22764;SDS011;11549;50.852;3.816;2023-07-20T08:17:51;4.38;;;2.70;;
22764;SDS011;11549;50.852;3.816;2023-07-20T08:20:20;5.97;;;4.18;;
22764;SDS011;11549;50.852;3.816;2023-07-20T08:22:54;5.00;;;3.00;;
22764;SDS011;11549;50.852;3.816;2023-07-20T08:25:22;4.80;;;3.40;;
22764;SDS011;11549;50.852;3.816;2023-07-20T08:27:51;5.38;;;3.17;;
22764;SDS011;11549;50.852;3.816;2023-07-20T08:30:20;3.70;;;3.05;;
22764;SDS011;11549;50.852;3.816;2023-07-20T08:32:49;6.15;;;3.33;;
22764;SDS011;11549;50.852;3.816;2023-07-20T08:35:19;3.53;;;2.28;;
22764;SDS011;11549;50.852;3.816;2023-07-20T08:37:48;5.47;;;3.00;;
22764;SDS011;11549;50.852;3.816;2023-07-20T08:40:17;5.65;;;2.92;;
22764;SDS011;11549;50.852;3.816;2023-07-20T08:42:45;3.25;;;2.20;;
22764;SDS011;11549;50.852;3.816;2023-07-20T08:45:14;3.60;;;1.88;;
22764;SDS011;11549;50.852;3.816;2023-07-20T08:47:44;2.63;;;1.92;;
22764;SDS011;11549;50.852;3.816;2023-07-20T08:50:17;2.72;;;1.48;;
22764;SDS011;11549;50.852;3.816;2023-07-20T08:52:47;2.83;;;1.40;;
22764;SDS011;11549;50.852;3.816;2023-07-20T08:55:18;3.45;;;1.40;;
22764;SDS011;11549;50.852;3.816;2023-07-20T08:57:48;4.10;;;1.73;;
22764;SDS011;11549;50.852;3.816;2023-07-20T09:00:18;3.35;;;1.60;;
22764;SDS011;11549;50.852;3.816;2023-07-20T09:02:48;4.22;;;1.90;;
22764;SDS011;11549;50.852;3.816;2023-07-20T09:05:19;3.03;;;1.70;;
22764;SDS011;11549;50.852;3.816;2023-07-20T09:07:50;2.83;;;1.50;;
22764;SDS011;11549;50.852;3.816;2023-07-20T09:10:20;3.10;;;1.63;;
22764;SDS011;11549;50.852;3.816;2023-07-20T09:12:49;3.40;;;1.55;;
22764;SDS011;11549;50.852;3.816;2023-07-20T09:15:18;5.53;;;1.65;;
22764;SDS011;11549;50.852;3.816;2023-07-20T09:17:48;2.72;;;1.45;;
22764;SDS011;11549;50.852;3.816;2023-07-20T09:20:17;2.92;;;1.40;;
22764;SDS011;11549;50.852;3.816;2023-07-20T09:22:50;3.80;;;1.55;;
22764;SDS011;11549;50.852;3.816;2023-07-20T09:25:19;2.75;;;1.35;;
22764;SDS011;11549;50.852;3.816;2023-07-20T09:27:51;3.10;;;2.00;;
22764;SDS011;11549;50.852;3.816;2023-07-20T09:30:21;4.30;;;1.90;;
22764;SDS011;11549;50.852;3.816;2023-07-20T09:32:57;3.40;;;1.60;;
22764;SDS011;11549;50.852;3.816;2023-07-20T09:35:28;3.88;;;1.70;;
22764;SDS011;11549;50.852;3.816;2023-07-20T09:38:08;5.22;;;2.30;;
22764;SDS011;11549;50.852;3.816;2023-07-20T09:40:40;3.45;;;2.00;;
22764;SDS011;11549;50.852;3.816;2023-07-20T09:43:11;3.13;;;1.83;;
22764;SDS011;11549;50.852;3.816;2023-07-20T09:45:43;2.78;;;1.40;;
22764;SDS011;11549;50.852;3.816;2023-07-20T09:48:14;3.45;;;1.65;;
22764;SDS011;11549;50.852;3.816;2023-07-20T09:50:49;3.65;;;1.40;;
22764;SDS011;11549;50.852;3.816;2023-07-20T09:53:18;4.60;;;1.25;;
22764;SDS011;11549;50.852;3.816;2023-07-20T09:55:47;2.83;;;1.50;;
22764;SDS011;11549;50.852;3.816;2023-07-20T09:58:16;2.60;;;1.30;;
22764;SDS011;11549;50.852;3.816;2023-07-20T10:00:45;2.55;;;1.10;;
22764;SDS011;11549;50.852;3.816;2023-07-20T10:03:21;2.33;;;1.23;;
22764;SDS011;11549;50.852;3.816;2023-07-20T10:05:54;2.75;;;1.50;;
22764;SDS011;11549;50.852;3.816;2023-07-20T10:08:25;3.67;;;1.58;;
22764;SDS011;11549;50.852;3.816;2023-07-20T10:10:59;3.90;;;1.40;;
22764;SDS011;11549;50.852;3.816;2023-07-20T10:13:29;2.92;;;1.17;;
22764;SDS011;11549;50.852;3.816;2023-07-20T10:15:59;3.10;;;1.20;;
22764;SDS011;11549;50.852;3.816;2023-07-20T10:18:32;3.22;;;1.20;;
22764;SDS011;11549;50.852;3.816;2023-07-20T10:21:09;2.95;;;1.30;;
22764;SDS011;11549;50.852;3.816;2023-07-20T10:23:42;2.72;;;1.20;;
22764;SDS011;11549;50.852;3.816;2023-07-20T10:26:11;1.80;;;1.20;;
22764;SDS011;11549;50.852;3.816;2023-07-20T10:28:41;2.85;;;1.02;;
22764;SDS011;11549;50.852;3.816;2023-07-20T10:31:12;3.08;;;0.80;;
22764;SDS011;11549;50.852;3.816;2023-07-20T10:33:43;2.60;;;0.90;;
22764;SDS011;11549;50.852;3.816;2023-07-20T10:36:13;3.75;;;1.08;;
22764;SDS011;11549;50.852;3.816;2023-07-20T10:38:42;1.85;;;1.10;;
22764;SDS011;11549;50.852;3.816;2023-07-20T10:41:21;1.73;;;1.10;;
22764;SDS011;11549;50.852;3.816;2023-07-20T10:43:54;2.50;;;1.25;;
22764;SDS011;11549;50.852;3.816;2023-07-20T10:49:26;2.58;;;1.30;;
22764;SDS011;11549;50.852;3.816;2023-07-20T10:51:58;2.83;;;1.00;;
22764;SDS011;11549;50.852;3.816;2023-07-20T10:57:21;2.78;;;1.00;;
22764;SDS011;11549;50.852;3.816;2023-07-20T10:59:51;2.53;;;1.27;;
22764;SDS011;11549;50.852;3.816;2023-07-20T11:02:19;3.40;;;1.70;;
22764;SDS011;11549;50.852;3.816;2023-07-20T11:04:48;3.75;;;1.17;;
22764;SDS011;11549;50.852;3.816;2023-07-20T11:07:23;3.35;;;1.70;;
22764;SDS011;11549;50.852;3.816;2023-07-20T11:10:14;3.75;;;1.80;;
22764;SDS011;11549;50.852;3.816;2023-07-20T11:15:48;2.90;;;1.60;;
22764;SDS011;11549;50.852;3.816;2023-07-20T11:18:28;3.90;;;1.38;;
22764;SDS011;11549;50.852;3.816;2023-07-20T11:20:59;3.17;;;1.65;;
22764;SDS011;11549;50.852;3.816;2023-07-20T11:23:28;3.30;;;1.98;;
22764;SDS011;11549;50.852;3.816;2023-07-20T11:25:59;3.58;;;1.80;;
22764;SDS011;11549;50.852;3.816;2023-07-20T11:28:29;3.53;;;1.70;;
22764;SDS011;11549;50.852;3.816;2023-07-20T11:30:58;2.40;;;1.27;;
22764;SDS011;11549;50.852;3.816;2023-07-20T11:33:26;3.40;;;1.60;;
22764;SDS011;11549;50.852;3.816;2023-07-20T11:35:55;2.42;;;1.40;;
22764;SDS011;11549;50.852;3.816;2023-07-20T11:38:23;2.92;;;1.67;;
22764;SDS011;11549;50.852;3.816;2023-07-20T11:40:53;4.47;;;1.88;;
22764;SDS011;11549;50.852;3.816;2023-07-20T11:43:22;4.35;;;1.50;;
22764;SDS011;11549;50.852;3.816;2023-07-20T11:45:52;2.85;;;1.30;;
22764;SDS011;11549;50.852;3.816;2023-07-20T11:48:21;4.25;;;1.75;;
22764;SDS011;11549;50.852;3.816;2023-07-20T11:50:49;3.92;;;1.80;;
22764;SDS011;11549;50.852;3.816;2023-07-20T11:53:17;3.05;;;1.35;;
22764;SDS011;11549;50.852;3.816;2023-07-20T11:55:46;3.47;;;1.55;;
22764;SDS011;11549;50.852;3.816;2023-07-20T11:58:16;4.07;;;1.92;;
22764;SDS011;11549;50.852;3.816;2023-07-20T12:00:45;2.50;;;1.10;;
22764;SDS011;11549;50.852;3.816;2023-07-20T12:03:14;3.38;;;1.58;;
22764;SDS011;11549;50.852;3.816;2023-07-20T12:05:42;3.97;;;1.80;;
22764;SDS011;11549;50.852;3.816;2023-07-20T12:08:26;4.00;;;1.77;;
22764;SDS011;11549;50.852;3.816;2023-07-20T12:10:55;2.08;;;1.40;;
22764;SDS011;11549;50.852;3.816;2023-07-20T12:13:26;2.95;;;2.00;;
22764;SDS011;11549;50.852;3.816;2023-07-20T12:16:08;4.28;;;1.45;;
22764;SDS011;11549;50.852;3.816;2023-07-20T12:18:38;4.05;;;2.08;;
22764;SDS011;11549;50.852;3.816;2023-07-20T12:21:07;3.60;;;1.80;;
22764;SDS011;11549;50.852;3.816;2023-07-20T12:23:37;5.57;;;2.17;;
22764;SDS011;11549;50.852;3.816;2023-07-20T12:26:06;4.93;;;2.47;;
22764;SDS011;11549;50.852;3.816;2023-07-20T12:28:40;4.45;;;2.53;;
22764;SDS011;11549;50.852;3.816;2023-07-20T12:31:09;3.88;;;2.10;;
22764;SDS011;11549;50.852;3.816;2023-07-20T12:33:39;5.65;;;2.50;;
22764;SDS011;11549;50.852;3.816;2023-07-20T12:36:08;4.35;;;2.72;;
22764;SDS011;11549;50.852;3.816;2023-07-20T12:38:37;5.82;;;2.70;;
22764;SDS011;11549;50.852;3.816;2023-07-20T12:41:06;6.47;;;2.63;;
22764;SDS011;11549;50.852;3.816;2023-07-20T12:43:34;4.10;;;3.10;;
22764;SDS011;11549;50.852;3.816;2023-07-20T12:46:04;3.97;;;3.00;;
22764;SDS011;11549;50.852;3.816;2023-07-20T12:48:32;4.05;;;3.00;;
22764;SDS011;11549;50.852;3.816;2023-07-20T12:51:01;4.57;;;2.58;;
22764;SDS011;11549;50.852;3.816;2023-07-20T12:53:30;4.07;;;2.67;;
22764;SDS011;11549;50.852;3.816;2023-07-20T12:55:59;3.58;;;2.90;;
22764;SDS011;11549;50.852;3.816;2023-07-20T12:58:47;4.88;;;2.60;;
22764;SDS011;11549;50.852;3.816;2023-07-20T13:01:18;4.43;;;3.10;;
22764;SDS011;11549;50.852;3.816;2023-07-20T13:03:46;3.80;;;2.95;;
22764;SDS011;11549;50.852;3.816;2023-07-20T13:06:17;4.30;;;2.90;;
22764;SDS011;11549;50.852;3.816;2023-07-20T13:08:49;4.53;;;2.38;;
22764;SDS011;11549;50.852;3.816;2023-07-20T13:11:22;3.00;;;2.15;;
22764;SDS011;11549;50.852;3.816;2023-07-20T13:13:51;2.90;;;2.30;;
22764;SDS011;11549;50.852;3.816;2023-07-20T13:16:21;4.95;;;2.90;;
22764;SDS011;11549;50.852;3.816;2023-07-20T13:18:50;3.65;;;2.38;;
22764;SDS011;11549;50.852;3.816;2023-07-20T13:21:18;4.72;;;2.45;;
22764;SDS011;11549;50.852;3.816;2023-07-20T13:23:51;3.28;;;2.47;;
22764;SDS011;11549;50.852;3.816;2023-07-20T13:26:20;4.13;;;2.78;;
22764;SDS011;11549;50.852;3.816;2023-07-20T13:28:48;3.53;;;2.50;;
22764;SDS011;11549;50.852;3.816;2023-07-20T13:31:17;4.25;;;2.35;;
22764;SDS011;11549;50.852;3.816;2023-07-20T13:33:51;4.38;;;2.40;;
22764;SDS011;11549;50.852;3.816;2023-07-20T13:36:25;3.58;;;2.10;;
22764;SDS011;11549;50.852;3.816;2023-07-20T13:38:56;3.80;;;2.40;;
22764;SDS011;11549;50.852;3.816;2023-07-20T13:41:25;4.07;;;2.50;;
22764;SDS011;11549;50.852;3.816;2023-07-20T13:43:56;3.33;;;2.08;;
22764;SDS011;11549;50.852;3.816;2023-07-20T13:46:24;6.25;;;2.40;;
22764;SDS011;11549;50.852;3.816;2023-07-20T13:48:57;3.67;;;2.30;;
22764;SDS011;11549;50.852;3.816;2023-07-20T13:51:26;3.75;;;1.95;;
22764;SDS011;11549;50.852;3.816;2023-07-20T13:53:54;5.57;;;2.30;;
22764;SDS011;11549;50.852;3.816;2023-07-20T13:56:23;4.40;;;2.00;;
22764;SDS011;11549;50.852;3.816;2023-07-20T13:58:52;3.15;;;2.00;;
22764;SDS011;11549;50.852;3.816;2023-07-20T14:01:24;3.58;;;1.85;;
22764;SDS011;11549;50.852;3.816;2023-07-20T14:03:57;3.03;;;2.00;;
22764;SDS011;11549;50.852;3.816;2023-07-20T14:06:31;2.60;;;1.92;;
22764;SDS011;11549;50.852;3.816;2023-07-20T14:09:01;4.20;;;2.35;;
22764;SDS011;11549;50.852;3.816;2023-07-20T14:11:29;4.90;;;2.72;;
22764;SDS011;11549;50.852;3.816;2023-07-20T14:14:01;4.07;;;2.28;;
22764;SDS011;11549;50.852;3.816;2023-07-20T14:16:29;4.05;;;2.10;;
22764;SDS011;11549;50.852;3.816;2023-07-20T14:19:00;3.78;;;1.85;;
22764;SDS011;11549;50.852;3.816;2023-07-20T14:21:29;3.35;;;1.88;;
22764;SDS011;11549;50.852;3.816;2023-07-20T14:23:59;4.15;;;2.13;;
22764;SDS011;11549;50.852;3.816;2023-07-20T14:26:28;3.95;;;2.25;;
22764;SDS011;11549;50.852;3.816;2023-07-20T14:28:59;5.18;;;2.50;;
22764;SDS011;11549;50.852;3.816;2023-07-20T14:31:28;6.20;;;2.50;;
22764;SDS011;11549;50.852;3.816;2023-07-20T14:33:58;3.20;;;2.17;;
22764;SDS011;11549;50.852;3.816;2023-07-20T14:36:28;4.50;;;3.20;;
22764;SDS011;11549;50.852;3.816;2023-07-20T14:39:00;8.18;;;4.10;;
22764;SDS011;11549;50.852;3.816;2023-07-20T14:41:28;7.32;;;4.82;;
22764;SDS011;11549;50.852;3.816;2023-07-20T14:43:57;6.78;;;5.15;;
22764;SDS011;11549;50.852;3.816;2023-07-20T14:46:25;7.40;;;5.53;;
22764;SDS011;11549;50.852;3.816;2023-07-20T14:48:54;8.52;;;5.45;;
22764;SDS011;11549;50.852;3.816;2023-07-20T14:51:22;7.65;;;6.22;;
22764;SDS011;11549;50.852;3.816;2023-07-20T14:54:06;7.28;;;6.18;;
22764;SDS011;11549;50.852;3.816;2023-07-20T14:56:34;7.30;;;5.20;;
22764;SDS011;11549;50.852;3.816;2023-07-20T14:59:04;9.30;;;6.55;;
22764;SDS011;11549;50.852;3.816;2023-07-20T15:01:32;8.60;;;6.28;;
22764;SDS011;11549;50.852;3.816;2023-07-20T15:04:01;7.72;;;6.95;;